Sturtevant, WI

1:20 PM CDT on June 02, 2015 (GMT -0500)
Yorkville-Union Grove | | Change Station
CLOSE
Current Station
Personal Weather Station
Location: Union Grove, WI
Elevation: 761 ft
Nearby Weather Stations

Elev 761 ft 42.69 °N, 88.00 °W | Updated 5 minutes ago

Clear
Clear
68.1 °F
Feels Like 68.1 °F
N
3.0
Wind Variable Wind from East
Gusts 9.0 mph

Today
High -- | Low -- °F
--% Chance of Precip.
Yesterday
High -- | Low -- °F
Precip. -- in
5:15 AM 8:23 PM
Full, 100% visible
Pressure 30.17 in
Visibility 10.0 miles
Clouds Clear
Dew Point 51 °F
Humidity 55%
Rainfall 0.00 in
Snow Depth Not available.
UV 11 out of 12
Pollen 6.20 out of 12
Air Quality Not available.
Flu Activity Sporadic
METAR KENW 021753Z 11012KT 10SM CLR 17/09 A3016 RMK AO2 SLP216 T01720089 58013

More Conditions Fewer Conditions

Pressure 30.17 in
Visibility 10.0 miles
Clouds Clear
Dew Point 51 °F
Humidity 55%
Rainfall 0.00 in
Snow Depth Not available.
UV 11 out of 12
Pollen 6.20 out of 12
Air Quality Not available.
Flu Activity Sporadic
METAR KENW 021753Z 11012KT 10SM CLR 17/09 A3016 RMK AO2 SLP216 T01720089 58013

More Conditions Fewer Conditions

10-Day Weather Forecast

×

Almanac

Astronomy

Jun. 02, 2015 Rise Set
Actual Time
Civil Twilight
Nautical Twilight
Astronomical Twilight
Moon
Length of Visible Light
Length of Day
Tomorrow will be .
, % of the Moon is Illuminated

Today's Extremes

State Highs State Lows

Community

WunderPhotos

Upload Photos

1,825,995 photos uploaded!

WunderBlogs® & News

Nearby

Air Quality

  Air Quality AQ Index Pollutant
Not available.

Snow Depth

Station Depth Elevation

Earthquake Activity

City Distance Mag. Time & Date
Minimum magnitude displayed is 2.5.

Coastal Water Temperatures

Place Temperature

Stations

Nearby Weather Stations

Station Location Temp. Windchill Dew Point Humidity Wind Precip. Elev Updated Type